Time;durP1;ratioP1;P1;durP2;ratioP2;P2;SDS_P1;SDS_P2;PMS_P1;PMS_P2;Temp;Humidity;BMP_temperature;BMP_pressure;BME280_temperature;BME280_humidity;BME280_pressure;Samples;Min_cycle;Max_cycle;Signal;HPM_P1;HPM_P2
2022/06/15 00:01:33;;;;;;;5.33;3.93;;;15.10;99.90;;;;;;4975094;28;20203;-76
2022/06/15 00:04:00;;;;;;;4.53;4.13;;;15.10;99.90;;;;;;4975105;28;20180;-76
2022/06/15 00:06:30;;;;;;;6.07;4.23;;;15.10;99.90;;;;;;4975647;28;20263;-75
2022/06/15 00:08:58;;;;;;;3.80;3.13;;;15.00;99.90;;;;;;4975209;28;20858;-76
2022/06/15 00:11:29;;;;;;;4.47;4.17;;;15.00;99.90;;;;;;4974737;28;20474;-77
2022/06/15 00:13:57;;;;;;;4.50;3.77;;;15.00;99.90;;;;;;4975242;28;20531;-76
2022/06/15 00:16:23;;;;;;;3.83;3.40;;;14.90;99.90;;;;;;4974881;28;20552;-76
2022/06/15 00:18:49;;;;;;;5.73;4.93;;;14.90;99.90;;;;;;4974968;28;20418;-76
2022/06/15 00:21:16;;;;;;;5.33;4.83;;;14.80;99.90;;;;;;4974652;28;20192;-75
2022/06/15 00:23:43;;;;;;;8.20;4.40;;;14.80;99.90;;;;;;4974921;28;20446;-76
2022/06/15 00:26:09;;;;;;;5.80;3.70;;;14.70;99.90;;;;;;4974088;28;20419;-76
2022/06/15 00:28:36;;;;;;;5.33;3.70;;;14.70;99.90;;;;;;4974873;28;20411;-75
2022/06/15 00:31:02;;;;;;;4.93;3.80;;;14.60;99.90;;;;;;4974069;28;20474;-76
2022/06/15 00:33:28;;;;;;;5.60;3.60;;;14.60;99.90;;;;;;4974990;28;20778;-76
2022/06/15 00:35:57;;;;;;;7.97;5.33;;;14.60;99.90;;;;;;4974592;28;20469;-76
2022/06/15 00:38:30;;;;;;;6.00;4.17;;;14.60;99.90;;;;;;4973568;28;20271;-76
2022/06/15 00:40:56;;;;;;;4.47;3.83;;;14.50;99.90;;;;;;4974173;28;20415;-76
2022/06/15 00:43:36;;;;;;;4.50;4.10;;;14.50;99.90;;;;;;4974306;28;20470;-76
2022/06/15 00:46:20;;;;;;;4.43;4.03;;;14.40;99.90;;;;;;4974329;28;20172;-75
2022/06/15 00:48:52;;;;;;;4.97;4.53;;;14.40;99.90;;;;;;4974349;28;20411;-76
2022/06/15 00:51:18;;;;;;;10.43;4.13;;;14.40;99.90;;;;;;4974080;28;20549;-76
2022/06/15 00:53:44;;;;;;;4.43;3.97;;;14.40;99.90;;;;;;4974334;28;20814;-76
2022/06/15 00:56:10;;;;;;;6.10;4.10;;;14.30;99.90;;;;;;4974321;28;20527;-76
2022/06/15 00:58:39;;;;;;;4.30;3.90;;;14.30;99.90;;;;;;4974382;28;20539;-75
2022/06/15 02:32:49;;;;;;;6.50;4.70;;;13.30;99.90;;;;;;5215273;23;20505;-74
2022/06/15 02:35:17;;;;;;;8.60;5.07;;;13.20;99.90;;;;;;5010787;28;20484;-77
2022/06/15 02:37:44;;;;;;;7.23;5.50;;;13.20;99.90;;;;;;5011966;28;20968;-76
2022/06/15 02:40:16;;;;;;;7.23;4.77;;;13.20;99.90;;;;;;5011933;28;20437;-77
2022/06/15 02:42:44;;;;;;;6.40;5.60;;;13.20;99.90;;;;;;5011836;28;20424;-77
2022/06/15 02:45:17;;;;;;;5.17;4.77;;;13.10;99.90;;;;;;5012002;28;20488;-77
2022/06/15 02:47:42;;;;;;;5.87;4.60;;;13.10;99.90;;;;;;5011893;28;20409;-77
2022/06/15 02:50:11;;;;;;;5.90;4.57;;;13.00;99.90;;;;;;5010863;28;20432;-77
2022/06/15 02:52:50;;;;;;;4.57;4.17;;;13.00;99.90;;;;;;5010332;28;20265;-77
2022/06/15 02:55:19;;;;;;;5.17;4.67;;;13.00;99.90;;;;;;5011617;28;20413;-77
2022/06/15 02:57:47;;;;;;;5.87;5.30;;;13.00;99.90;;;;;;5011928;28;20492;-77
2022/06/15 03:00:15;;;;;;;6.97;5.10;;;12.90;99.90;;;;;;5010166;28;20417;-76
2022/06/15 03:02:41;;;;;;;5.97;5.23;;;12.90;99.90;;;;;;5010825;28;20953;-76
2022/06/15 03:05:07;;;;;;;6.10;4.77;;;12.80;99.90;;;;;;5012056;28;20460;-76
2022/06/15 03:07:32;;;;;;;7.13;5.87;;;12.80;99.90;;;;;;5015345;28;20178;-76
2022/06/15 03:09:58;;;;;;;6.23;4.60;;;12.80;99.90;;;;;;5015554;28;20508;-77
2022/06/15 03:12:23;;;;;;;5.30;4.80;;;12.70;99.90;;;;;;5014840;28;20211;-76
2022/06/15 03:14:49;;;;;;;5.57;5.07;;;12.80;99.90;;;;;;5015246;28;20171;-77
2022/06/15 03:17:14;;;;;;;7.73;5.50;;;12.70;99.90;;;;;;5015277;28;20175;-76
2022/06/15 03:19:40;;;;;;;7.57;5.40;;;12.70;99.90;;;;;;5015376;28;20202;-76
2022/06/15 03:22:05;;;;;;;5.20;4.80;;;12.60;99.90;;;;;;5015000;28;20198;-76
2022/06/15 03:24:31;;;;;;;6.43;5.00;;;12.60;99.90;;;;;;5014985;28;20182;-76
2022/06/15 03:26:57;;;;;;;7.67;5.83;;;12.60;99.90;;;;;;5014925;28;20187;-77
2022/06/15 03:29:22;;;;;;;9.50;5.80;;;12.50;99.90;;;;;;5014918;28;20182;-76
2022/06/15 03:31:48;;;;;;;6.67;5.70;;;12.50;99.90;;;;;;5014392;28;20217;-77
2022/06/15 03:34:13;;;;;;;7.00;5.40;;;12.50;99.90;;;;;;5014798;28;20547;-77
2022/06/15 03:36:39;;;;;;;5.27;4.80;;;12.50;99.90;;;;;;5014687;28;20213;-77
2022/06/15 03:39:04;;;;;;;8.50;5.67;;;12.50;99.90;;;;;;5014606;28;20588;-76
2022/06/15 03:41:30;;;;;;;6.57;5.10;;;12.50;99.90;;;;;;5014469;28;20202;-76
2022/06/15 03:43:56;;;;;;;5.93;5.13;;;12.50;99.90;;;;;;5014462;28;20182;-77
2022/06/15 03:46:23;;;;;;;5.17;4.67;;;12.50;99.90;;;;;;5014578;28;20229;-76
2022/06/15 03:48:48;;;;;;;7.57;5.70;;;12.50;99.90;;;;;;5014457;28;20174;-76
2022/06/15 03:51:14;;;;;;;5.17;4.40;;;12.60;99.90;;;;;;5013795;28;20471;-77
2022/06/15 03:53:39;;;;;;;10.03;6.03;;;12.60;99.90;;;;;;5014106;28;20182;-76
2022/06/15 03:56:05;;;;;;;6.27;5.63;;;12.60;99.90;;;;;;5014224;28;20174;-77
2022/06/15 03:58:31;;;;;;;7.50;5.50;;;12.50;99.90;;;;;;5014012;28;20654;-77
2022/06/15 04:00:56;;;;;;;6.03;5.43;;;12.60;99.90;;;;;;5014027;28;20191;-77
2022/06/15 04:03:22;;;;;;;6.73;6.00;;;12.60;99.90;;;;;;5014381;28;20199;-77
2022/06/15 04:05:54;;;;;;;5.67;5.17;;;12.60;99.90;;;;;;5014232;28;20201;-77
2022/06/15 04:08:37;;;;;;;7.03;6.43;;;12.60;99.90;;;;;;5013755;28;20190;-77
2022/06/15 04:11:10;;;;;;;6.47;5.43;;;12.70;99.90;;;;;;5013744;28;20461;-77
2022/06/15 04:13:36;;;;;;;7.53;5.40;;;12.70;99.90;;;;;;5013990;28;20792;-77
2022/06/15 04:16:05;;;;;;;6.30;4.67;;;12.70;99.90;;;;;;5014373;28;20409;-75
2022/06/15 04:18:30;;;;;;;5.77;5.10;;;12.80;99.90;;;;;;5014550;28;20925;-74
2022/06/15 04:20:56;;;;;;;6.50;5.90;;;12.90;99.90;;;;;;5013601;28;20520;-74
2022/06/15 04:23:22;;;;;;;6.10;5.50;;;12.90;99.90;;;;;;5013112;28;20186;-74
2022/06/15 04:25:52;;;;;;;8.67;6.00;;;13.00;99.90;;;;;;5013230;28;20751;-74
2022/06/15 04:28:19;;;;;;;5.83;5.33;;;13.10;99.90;;;;;;5013201;28;20273;-74
2022/06/15 04:30:46;;;;;;;8.03;5.97;;;13.20;99.90;;;;;;5012907;28;20418;-74
2022/06/15 04:33:12;;;;;;;7.60;5.80;;;13.20;99.90;;;;;;5013071;28;20426;-74
2022/06/15 04:35:38;;;;;;;9.63;5.83;;;13.30;99.90;;;;;;5013223;28;20421;-74
2022/06/15 04:38:04;;;;;;;13.00;5.10;;;13.40;99.90;;;;;;5013077;28;20409;-74
2022/06/15 04:40:32;;;;;;;5.23;4.83;;;13.50;99.90;;;;;;5012726;28;20856;-74
2022/06/15 04:42:58;;;;;;;6.57;5.20;;;13.70;99.90;;;;;;5012885;28;20448;-74
2022/06/15 04:45:23;;;;;;;9.63;5.70;;;13.80;99.90;;;;;;5012809;28;20810;-75
2022/06/15 04:47:49;;;;;;;7.40;5.80;;;13.90;99.90;;;;;;5011496;28;20417;-74
2022/06/15 04:50:15;;;;;;;6.57;4.23;;;14.00;99.90;;;;;;5012285;28;20646;-74
2022/06/15 04:52:43;;;;;;;6.60;5.20;;;14.10;99.90;;;;;;5012453;28;20628;-74
2022/06/15 04:55:14;;;;;;;5.27;4.80;;;14.30;99.90;;;;;;5012777;28;21061;-75
2022/06/15 04:57:40;;;;;;;6.17;4.60;;;14.50;99.90;;;;;;5013040;28;20448;-76
2022/06/15 05:00:11;;;;;;;6.40;5.07;;;14.80;99.90;;;;;;5013446;28;20965;-76
2022/06/15 05:02:36;;;;;;;6.47;4.80;;;16.70;99.90;;;;;;5013490;28;20210;-76
2022/06/15 05:05:02;;;;;;;5.07;4.23;;;19.70;99.90;;;;;;5013893;28;20533;-76
2022/06/15 05:07:28;;;;;;;6.53;3.80;;;22.50;99.90;;;;;;5013638;28;20193;-77
2022/06/15 05:09:54;;;;;;;10.10;3.90;;;25.00;99.90;;;;;;5013546;28;20409;-76
2022/06/15 05:12:19;;;;;;;5.10;3.87;;;26.10;99.90;;;;;;5012758;28;20290;-75
2022/06/15 05:14:48;;;;;;;5.97;3.80;;;27.00;99.90;;;;;;5011181;28;20209;-75
2022/06/15 05:17:18;;;;;;;10.50;4.13;;;27.70;99.90;;;;;;5005903;28;20193;-74
2022/06/15 05:19:44;;;;;;;4.27;3.87;;;28.10;99.90;;;;;;5010361;28;20426;-75
2022/06/15 05:22:10;;;;;;;5.80;3.67;;;28.30;99.90;;;;;;5011497;28;20488;-75
2022/06/15 05:24:36;;;;;;;4.23;3.83;;;28.90;99.90;;;;;;5011406;28;20171;-75
2022/06/15 05:27:02;;;;;;;3.97;3.60;;;28.70;99.90;;;;;;5011680;28;20406;-75
2022/06/15 05:29:28;;;;;;;4.40;3.60;;;29.20;99.90;;;;;;5013892;28;20467;-75
2022/06/15 05:31:54;;;;;;;6.00;4.07;;;29.30;99.90;;;;;;5012367;28;20301;-76
2022/06/15 05:34:19;;;;;;;3.90;3.60;;;29.50;99.90;;;;;;5012258;28;20257;-75
2022/06/15 05:36:45;;;;;;;4.07;2.60;;;29.00;99.90;;;;;;5012605;28;20544;-76
2022/06/15 05:39:12;;;;;;;3.33;3.00;;;28.30;99.90;;;;;;5012910;28;20565;-76
2022/06/15 05:41:38;;;;;;;8.83;4.80;;;28.00;99.90;;;;;;5012632;28;20201;-76
2022/06/15 05:44:09;;;;;;;4.97;4.00;;;27.40;99.90;;;;;;5012664;28;20417;-76
2022/06/15 05:46:35;;;;;;;4.20;3.63;;;26.70;99.90;;;;;;5013057;28;20174;-76
2022/06/15 05:49:03;;;;;;;6.63;4.90;;;26.10;99.90;;;;;;5011407;28;20429;-75
2022/06/15 05:51:29;;;;;;;6.93;4.20;;;25.80;99.90;;;;;;5012079;28;20448;-76
2022/06/15 05:53:55;;;;;;;6.63;4.80;;;25.60;99.90;;;;;;5012748;28;20413;-76
2022/06/15 05:56:21;;;;;;;7.90;4.67;;;25.60;99.90;;;;;;5012614;28;20546;-76
2022/06/15 05:58:47;;;;;;;6.63;4.50;;;25.70;99.90;;;;;;5012691;28;20406;-76
2022/06/15 06:01:34;;;;;;;5.50;4.37;;;25.40;99.90;;;;;;5014205;28;20222;-74
2022/06/15 06:04:00;;;;;;;7.27;4.67;;;25.60;99.90;;;;;;5012306;28;20257;-75
2022/06/15 06:06:27;;;;;;;6.70;4.53;;;25.50;99.90;;;;;;5012249;28;20782;-75
2022/06/15 06:08:53;;;;;;;6.20;4.20;;;25.40;99.90;;;;;;5012346;28;20501;-75
2022/06/15 06:11:18;;;;;;;11.47;4.30;;;25.20;99.90;;;;;;5011746;28;20465;-75
2022/06/15 06:13:44;;;;;;;8.80;4.97;;;25.40;99.90;;;;;;5012414;28;20410;-75
2022/06/15 06:16:10;;;;;;;8.97;4.87;;;25.50;99.90;;;;;;5011911;28;20496;-74
2022/06/15 06:18:36;;;;;;;5.97;4.30;;;25.60;99.90;;;;;;5012000;28;20186;-76
2022/06/15 06:21:02;;;;;;;7.03;4.37;;;25.80;99.90;;;;;;5011728;28;20194;-76
2022/06/15 06:23:27;;;;;;;9.73;4.33;;;26.10;99.90;;;;;;5012107;28;20179;-76
2022/06/15 06:25:53;;;;;;;7.67;4.77;;;26.20;99.90;;;;;;5011778;28;20421;-75
2022/06/15 06:28:25;;;;;;;8.47;5.00;;;26.10;99.90;;;;;;5012186;28;20204;-75
2022/06/15 06:30:51;;;;;;;10.47;5.27;;;26.30;99.90;;;;;;5011107;28;20174;-75
2022/06/15 06:33:17;;;;;;;12.50;5.17;;;26.20;99.90;;;;;;5011813;28;20781;-75
2022/06/15 06:35:43;;;;;;;8.97;4.97;;;26.20;99.90;;;;;;5011854;28;20183;-76
2022/06/15 06:38:10;;;;;;;16.63;5.50;;;26.20;99.90;;;;;;5011851;28;20175;-76
2022/06/15 06:40:35;;;;;;;10.17;4.53;;;26.40;99.90;;;;;;5011881;28;20764;-75
2022/06/15 06:43:01;;;;;;;8.77;4.57;;;26.60;99.90;;;;;;5015650;28;20436;-76
2022/06/15 06:45:27;;;;;;;7.37;4.90;;;26.90;99.90;;;;;;5015455;28;20175;-76
2022/06/15 06:47:53;;;;;;;9.03;4.67;;;27.20;99.90;;;;;;5015714;28;20225;-76
2022/06/15 06:50:18;;;;;;;6.30;4.60;;;27.30;99.90;;;;;;5015605;28;20179;-76
2022/06/15 06:52:44;;;;;;;8.73;4.53;;;27.50;99.90;;;;;;5014106;28;20473;-76
2022/06/15 06:55:09;;;;;;;6.63;4.30;;;27.10;99.90;;;;;;5015601;28;20209;-73
2022/06/15 06:57:35;;;;;;;7.03;3.80;;;27.10;99.90;;;;;;5013988;28;20181;-75
2022/06/15 07:00:00;;;;;;;7.83;3.63;;;27.30;99.90;;;;;;5015345;28;20203;-75
2022/06/15 07:02:26;;;;;;;11.00;5.03;;;27.60;99.90;;;;;;5015013;28;20260;-75
2022/06/15 07:04:51;;;;;;;6.90;4.37;;;27.50;99.90;;;;;;5015063;28;20175;-74
2022/06/15 07:07:17;;;;;;;6.23;4.37;;;27.20;99.90;;;;;;5014767;28;20205;-74
2022/06/15 07:09:42;;;;;;;4.40;4.00;;;27.00;99.90;;;;;;5014960;28;20186;-74
2022/06/15 07:12:08;;;;;;;8.80;4.00;;;27.10;99.90;;;;;;5014834;28;20259;-74
2022/06/15 07:14:34;;;;;;;10.83;4.20;;;27.30;99.90;;;;;;5016045;28;20181;-75
2022/06/15 07:17:00;;;;;;;4.47;4.00;;;27.50;99.90;;;;;;5017788;28;20212;-75
2022/06/15 07:19:25;;;;;;;9.00;4.87;;;28.00;99.90;;;;;;5017311;28;20170;-75
2022/06/15 07:21:51;;;;;;;7.43;3.50;;;28.50;99.90;;;;;;5015113;28;20805;-75
2022/06/15 07:24:16;;;;;;;6.93;3.50;;;28.50;99.90;;;;;;5015079;28;20179;-75
2022/06/15 07:26:47;;;;;;;3.90;3.60;;;28.40;99.90;;;;;;5014884;28;20186;-75
2022/06/15 07:29:17;;;;;;;6.87;3.97;;;28.30;99.90;;;;;;5015148;28;20505;-75
2022/06/15 07:31:47;;;;;;;3.73;3.40;;;28.50;99.90;;;;;;5014458;28;20816;-75
2022/06/15 07:34:13;;;;;;;3.60;3.30;;;28.10;99.90;;;;;;5015010;28;20406;-75
2022/06/15 07:36:46;;;;;;;5.30;3.50;;;28.30;99.90;;;;;;5014715;28;20418;-75
2022/06/15 07:39:16;;;;;;;4.27;3.23;;;28.50;99.90;;;;;;5015154;28;20410;-75
2022/06/15 07:41:42;;;;;;;4.80;3.40;;;28.80;99.90;;;;;;5014232;28;20430;-75
2022/06/15 07:44:07;;;;;;;4.67;3.60;;;29.20;99.90;;;;;;5014686;28;20414;-76
2022/06/15 07:46:33;;;;;;;7.67;3.40;;;29.40;99.90;;;;;;5014892;28;20414;-75
2022/06/15 07:51:59;;;;;;;9.63;3.10;;;29.70;99.90;;;;;;5013934;28;20213;-76
2022/06/15 07:54:24;;;;;;;6.13;3.53;;;29.60;99.90;;;;;;5014582;28;20405;-76
2022/06/15 07:56:54;;;;;;;5.77;2.93;;;29.50;99.90;;;;;;5014617;28;20420;-76
2022/06/15 07:59:20;;;;;;;7.70;3.47;;;29.90;99.90;;;;;;5014258;28;20174;-75
2022/06/15 08:01:46;;;;;;;7.10;3.13;;;30.00;99.90;;;;;;5013867;28;20437;-76
2022/06/15 08:04:13;;;;;;;5.67;3.40;;;30.00;99.90;;;;;;5014224;28;20421;-76
2022/06/15 08:06:41;;;;;;;4.37;3.97;;;30.00;99.90;;;;;;5014647;28;20676;-76
2022/06/15 08:09:09;;;;;;;4.37;2.97;;;30.30;99.90;;;;;;5015871;28;20413;-76
2022/06/15 08:11:35;;;;;;;4.33;3.40;;;30.30;99.30;;;;;;5015026;28;20461;-76
2022/06/15 08:14:01;;;;;;;9.00;3.83;;;30.60;99.50;;;;;;5014221;28;20421;-76
2022/06/15 08:16:27;;;;;;;7.73;3.40;;;30.40;98.40;;;;;;5014060;28;20413;-76
2022/06/15 08:18:58;;;;;;;10.50;4.17;;;30.50;99.90;;;;;;5012873;28;20182;-76
2022/06/15 08:21:28;;;;;;;5.63;4.10;;;30.50;98.30;;;;;;5013914;28;20441;-76
2022/06/15 08:23:56;;;;;;;6.83;3.80;;;30.50;98.90;;;;;;5014279;28;20401;-75
2022/06/15 08:26:25;;;;;;;5.57;3.23;;;30.90;98.90;;;;;;5013752;28;20465;-76
2022/06/15 08:28:55;;;;;;;4.37;3.53;;;31.50;98.70;;;;;;5014069;28;20417;-76
2022/06/15 08:31:22;;;;;;;9.90;4.37;;;32.20;98.30;;;;;;5013223;28;20473;-76
2022/06/15 08:33:48;;;;;;;4.93;3.30;;;32.20;97.30;;;;;;5013702;28;20409;-76
2022/06/15 08:36:14;;;;;;;3.80;2.80;;;32.20;97.10;;;;;;5013787;28;20425;-76
2022/06/15 08:38:40;;;;;;;6.47;3.53;;;32.40;95.90;;;;;;5013755;28;20237;-76
2022/06/15 08:41:18;;;;;;;5.00;3.70;;;32.80;95.30;;;;;;5013388;28;20438;-76
2022/06/15 08:44:09;;;;;;;8.57;3.47;;;32.70;95.30;;;;;;5013954;28;20432;-76
2022/06/15 08:46:53;;;;;;;3.83;3.03;;;32.80;96.40;;;;;;5013307;28;20417;-76
2022/06/15 08:49:37;;;;;;;5.03;3.50;;;33.30;93.30;;;;;;5013699;28;20421;-76
2022/06/15 08:52:17;;;;;;;6.40;3.10;;;33.10;93.30;;;;;;5013158;28;20530;-76
2022/06/15 08:54:52;;;;;;;6.10;3.70;;;33.10;93.70;;;;;;5013730;28;20405;-76
2022/06/15 08:57:25;;;;;;;5.50;3.20;;;33.90;93.80;;;;;;5013525;28;20816;-76
2022/06/15 09:00:14;;;;;;;7.10;3.63;;;33.80;92.80;;;;;;5013718;28;20489;-76
2022/06/15 09:02:58;;;;;;;5.70;4.20;;;33.90;92.70;;;;;;5012685;28;20520;-76
2022/06/15 09:06:07;;;;;;;6.40;3.57;;;34.10;92.00;;;;;;5013209;28;20445;-75
2022/06/15 09:09:02;;;;;;;7.60;3.20;;;33.90;91.10;;;;;;5013306;28;20441;-76
2022/06/15 09:11:46;;;;;;;5.53;3.10;;;34.00;91.80;;;;;;5012623;28;20453;-76
2022/06/15 09:14:33;;;;;;;4.63;3.03;;;33.40;92.80;;;;;;5013169;28;20468;-76
2022/06/15 09:17:10;;;;;;;3.83;3.20;;;33.70;92.90;;;;;;5013775;28;20405;-76
2022/06/15 09:19:44;;;;;;;6.13;3.20;;;33.70;92.30;;;;;;5013962;28;20505;-76
2022/06/15 09:22:17;;;;;;;10.83;3.40;;;33.60;90.50;;;;;;5013461;28;20437;-76
2022/06/15 09:24:52;;;;;;;4.57;2.80;;;33.80;90.20;;;;;;5013346;28;20421;-76
2022/06/15 09:27:23;;;;;;;4.00;3.70;;;33.40;90.40;;;;;;5013488;28;20844;-76
2022/06/15 09:30:02;;;;;;;3.40;3.10;;;32.80;91.50;;;;;;5013456;28;20441;-76
2022/06/15 09:32:36;;;;;;;5.07;3.33;;;33.30;90.50;;;;;;5012787;28;21008;-76
2022/06/15 09:35:18;;;;;;;6.40;3.83;;;33.70;91.70;;;;;;5013152;28;20446;-76
2022/06/15 09:37:51;;;;;;;2.80;2.53;;;34.10;90.80;;;;;;5012981;28;20398;-76
2022/06/15 09:40:18;;;;;;;6.03;2.80;;;34.50;86.60;;;;;;5012821;28;20775;-77
2022/06/15 09:43:25;;;;;;;7.23;3.10;;;34.80;87.50;;;;;;5012493;28;20429;-76
2022/06/15 09:46:17;;;;;;;5.10;3.00;;;34.60;89.60;;;;;;5004941;28;20421;-77
2022/06/15 09:49:09;;;;;;;3.13;2.70;;;35.10;91.10;;;;;;5002640;28;20512;-76
2022/06/15 09:51:53;;;;;;;3.80;2.90;;;34.70;85.30;;;;;;5011145;28;20461;-76
2022/06/15 09:54:41;;;;;;;4.10;2.40;;;34.40;86.50;;;;;;5012557;28;20408;-75
2022/06/15 09:57:06;;;;;;;2.20;2.03;;;34.30;86.30;;;;;;5012800;28;20405;-76
2022/06/15 09:59:33;;;;;;;3.63;3.13;;;34.70;87.40;;;;;;5012697;28;20777;-76
2022/06/15 10:02:02;;;;;;;3.00;2.30;;;35.00;86.60;;;;;;5012099;28;20200;-76
2022/06/15 10:04:31;;;;;;;3.10;2.37;;;35.20;85.60;;;;;;5012719;28;20489;-76
2022/06/15 10:07:06;;;;;;;3.93;2.10;;;35.20;83.80;;;;;;5012587;28;20449;-76
2022/06/15 10:09:37;;;;;;;8.97;2.10;;;35.50;81.00;;;;;;5012611;28;20408;-76
2022/06/15 10:15:16;;;;;;;13.37;2.20;;;35.10;78.40;;;;;;5012575;28;20393;-76
2022/06/15 10:17:54;;;;;;;2.30;1.50;;;35.10;79.90;;;;;;5016724;28;20413;-76
2022/06/15 10:20:36;;;;;;;1.90;1.80;;;34.70;74.20;;;;;;5016657;28;20166;-76
2022/06/15 10:23:06;;;;;;;2.03;1.57;;;34.50;72.20;;;;;;5016461;28;20922;-76
2022/06/15 10:25:36;;;;;;;4.93;2.50;;;34.50;73.60;;;;;;5016659;28;20839;-76
2022/06/15 10:28:25;;;;;;;2.70;2.03;;;35.00;74.90;;;;;;5016648;28;20414;-76
2022/06/15 10:30:57;;;;;;;3.00;1.97;;;35.50;73.20;;;;;;5015905;28;20421;-76
2022/06/15 10:33:23;;;;;;;5.13;2.43;;;35.60;73.90;;;;;;5016096;28;20423;-76
2022/06/15 10:35:57;;;;;;;2.40;2.00;;;35.90;74.70;;;;;;5016419;28;20858;-76
2022/06/15 10:38:24;;;;;;;8.47;2.40;;;35.90;73.50;;;;;;5016049;28;20749;-76
2022/06/15 10:43:51;;;;;;;5.57;2.60;;;34.90;78.00;;;;;;5015246;28;20500;-76
2022/06/15 10:46:18;;;;;;;2.60;2.10;;;34.50;77.80;;;;;;5014948;28;20437;-76
2022/06/15 10:48:46;;;;;;;3.30;2.70;;;35.00;77.70;;;;;;5015299;28;20174;-76
2022/06/15 10:51:32;;;;;;;2.83;2.40;;;35.20;77.00;;;;;;5014479;28;20421;-77
2022/06/15 10:54:16;;;;;;;5.57;2.60;;;35.40;76.00;;;;;;5015049;28;20461;-77
2022/06/15 11:02:40;;;;;;;3.83;2.63;;;35.40;77.60;;;;;;5016113;28;20774;-76
2022/06/15 11:05:09;;;;;;;3.07;2.00;;;35.20;77.20;;;;;;5015611;28;20427;-76
2022/06/15 11:07:34;;;;;;;2.43;2.20;;;35.10;77.50;;;;;;5014805;28;20460;-76
2022/06/15 11:10:06;;;;;;;8.70;2.73;;;34.70;78.80;;;;;;5014638;28;20909;-76
2022/06/15 11:12:46;;;;;;;2.40;2.30;;;34.60;78.10;;;;;;5013999;28;20206;-77
2022/06/15 11:15:19;;;;;;;3.83;2.20;;;34.30;73.50;;;;;;5014851;28;20489;-77
2022/06/15 11:18:03;;;;;;;8.93;3.77;;;34.30;73.00;;;;;;5014558;28;20413;-75
2022/06/15 11:20:40;;;;;;;2.80;2.20;;;34.00;75.10;;;;;;5014729;28;20413;-76
2022/06/15 11:23:34;;;;;;;5.03;1.77;;;34.10;76.70;;;;;;5015116;28;20412;-76
2022/06/15 11:28:56;;;;;;;3.30;2.70;;;34.30;75.70;;;;;;5011614;28;20478;-76
2022/06/15 11:31:26;;;;;;;2.97;2.03;;;34.00;74.40;;;;;;5013958;28;20465;-76
2022/06/15 11:34:04;;;;;;;2.30;2.10;;;33.90;74.00;;;;;;5013103;28;20483;-76
2022/06/15 11:36:42;;;;;;;3.57;1.80;;;33.50;73.60;;;;;;5013076;28;20520;-75
2022/06/15 11:39:21;;;;;;;1.90;1.80;;;33.30;76.70;;;;;;5012711;28;20479;-75
2022/06/15 11:41:55;;;;;;;9.47;2.40;;;33.40;77.10;;;;;;5014388;28;20495;-76
2022/06/15 11:44:28;;;;;;;2.80;2.30;;;33.30;75.40;;;;;;5012934;28;20449;-76
2022/06/15 11:47:21;;;;;;;2.47;1.90;;;33.30;78.00;;;;;;5014235;28;20452;-76
2022/06/15 11:50:04;;;;;;;4.20;2.03;;;33.20;76.70;;;;;;5014366;28;20437;-75
2022/06/15 11:52:55;;;;;;;4.47;2.80;;;33.40;76.10;;;;;;5013648;28;20469;-76
2022/06/15 11:55:57;;;;;;;5.43;2.00;;;33.30;77.90;;;;;;5014038;28;20949;-76
2022/06/15 11:59:01;;;;;;;2.90;2.70;;;32.70;80.70;;;;;;4961813;28;20426;-76
2022/06/15 12:01:41;;;;;;;2.93;2.40;;;32.60;79.40;;;;;;5011605;28;20456;-79
2022/06/15 12:04:17;;;;;;;2.50;2.40;;;32.80;82.00;;;;;;5014009;28;20414;-78
2022/06/15 12:07:04;;;;;;;3.10;2.90;;;33.00;80.90;;;;;;5008650;28;20439;-76
2022/06/15 12:09:52;;;;;;;4.20;2.30;;;33.10;78.70;;;;;;5005947;28;20413;-77
2022/06/15 12:12:39;;;;;;;5.70;2.20;;;32.90;80.30;;;;;;5010736;28;20473;-77
2022/06/15 12:15:13;;;;;;;2.47;2.27;;;32.80;77.90;;;;;;5013807;28;20984;-75
2022/06/15 12:18:14;;;;;;;4.43;3.00;;;32.90;79.00;;;;;;5010856;28;20445;-76
2022/06/15 12:20:45;;;;;;;3.07;2.30;;;33.00;77.70;;;;;;5012477;28;20406;-74
2022/06/15 12:23:48;;;;;;;2.70;2.40;;;32.90;75.80;;;;;;5002889;28;20460;-76
2022/06/15 12:26:23;;;;;;;2.70;1.80;;;32.90;75.10;;;;;;5011981;28;20458;-76
2022/06/15 12:29:25;;;;;;;3.17;1.97;;;32.80;76.80;;;;;;5012317;28;20492;-75
2022/06/15 12:34:52;;;;;;;4.30;2.30;;;32.70;76.10;;;;;;5013536;28;20414;-75
2022/06/15 12:37:20;;;;;;;3.00;1.97;;;32.60;77.70;;;;;;5009263;28;20437;-75
2022/06/15 12:39:49;;;;;;;4.77;2.60;;;32.30;75.00;;;;;;5013147;28;20450;-76
2022/06/15 12:42:17;;;;;;;4.40;2.30;;;32.30;77.30;;;;;;5011599;28;20516;-76
2022/06/15 12:45:05;;;;;;;7.23;2.27;;;32.00;77.90;;;;;;5013078;28;20424;-77
2022/06/15 12:47:33;;;;;;;2.93;1.93;;;32.10;76.70;;;;;;5011372;28;20944;-77
2022/06/15 12:50:04;;;;;;;2.93;2.53;;;32.10;79.20;;;;;;5011498;28;20445;-76
2022/06/15 12:52:49;;;;;;;2.87;2.70;;;32.00;79.20;;;;;;5011442;28;20519;-77
2022/06/15 12:55:47;;;;;;;6.07;3.47;;;31.90;76.50;;;;;;5012776;28;20424;-77
2022/06/15 12:58:22;;;;;;;3.80;2.67;;;31.60;75.80;;;;;;5010868;28;20438;-76
2022/06/15 13:00:54;;;;;;;6.10;2.40;;;31.60;78.70;;;;;;5009974;28;20417;-73
2022/06/15 13:03:34;;;;;;;5.33;2.07;;;31.40;75.70;;;;;;5011090;28;20437;-76
2022/06/15 13:06:18;;;;;;;3.07;2.33;;;31.30;77.50;;;;;;5012573;28;20940;-77
2022/06/15 13:08:46;;;;;;;2.70;2.50;;;31.20;76.90;;;;;;5010161;28;20448;-76
2022/06/15 13:11:17;;;;;;;5.30;2.60;;;31.30;79.00;;;;;;4992695;28;20446;-74
2022/06/15 13:13:50;;;;;;;7.40;2.53;;;31.30;82.90;;;;;;4996193;28;20445;-76
2022/06/15 13:16:41;;;;;;;3.27;2.37;;;31.40;78.50;;;;;;5012497;28;20492;-76
2022/06/15 13:19:23;;;;;;;2.37;2.27;;;31.40;79.40;;;;;;5012132;28;20445;-77
2022/06/15 13:21:52;;;;;;;4.27;3.17;;;31.40;79.20;;;;;;5008481;28;20552;-76
2022/06/15 13:24:18;;;;;;;5.23;2.70;;;31.50;80.70;;;;;;5006755;28;20433;-76
2022/06/15 13:26:44;;;;;;;5.80;2.67;;;31.50;79.90;;;;;;5012633;28;20417;-76
2022/06/15 13:29:15;;;;;;;4.10;2.83;;;31.30;79.90;;;;;;5009820;28;20441;-76
2022/06/15 13:32:05;;;;;;;4.97;2.90;;;31.30;81.90;;;;;;5011244;28;20218;-77
2022/06/15 13:34:33;;;;;;;3.13;2.50;;;31.50;81.80;;;;;;5009477;28;20434;-76
2022/06/15 13:37:27;;;;;;;6.10;2.70;;;31.50;82.10;;;;;;5012229;28;20422;-73
2022/06/15 13:40:03;;;;;;;3.53;2.63;;;31.40;81.30;;;;;;5007443;28;20483;-77
2022/06/15 13:43:04;;;;;;;7.97;3.20;;;31.30;80.70;;;;;;5010964;28;20944;-77
2022/06/15 13:45:30;;;;;;;2.43;2.30;;;31.20;81.00;;;;;;4950754;29;21028;-77
2022/06/15 13:48:02;;;;;;;3.90;2.60;;;31.10;82.50;;;;;;4999498;28;20426;-77
2022/06/15 13:50:35;;;;;;;7.60;3.40;;;31.10;80.50;;;;;;5008999;28;20191;-77
2022/06/15 13:53:04;;;;;;;2.67;2.47;;;31.10;82.70;;;;;;5008287;28;20469;-76
2022/06/15 13:55:45;;;;;;;5.20;2.33;;;31.20;79.80;;;;;;5009640;28;20965;-76
2022/06/15 13:58:17;;;;;;;5.47;2.60;;;31.10;81.10;;;;;;5012258;28;20409;-75
2022/06/15 14:01:01;;;;;;;3.03;2.70;;;31.00;79.20;;;;;;5011302;28;20446;-77
2022/06/15 14:03:53;;;;;;;8.27;3.00;;;31.00;83.00;;;;;;5008596;28;20875;-77
2022/06/15 14:06:37;;;;;;;5.67;2.70;;;31.10;82.10;;;;;;5009998;28;20442;-76
2022/06/15 14:09:31;;;;;;;6.10;2.57;;;31.10;84.40;;;;;;5011907;28;20495;-77
2022/06/15 14:12:17;;;;;;;2.33;2.13;;;31.20;80.60;;;;;;5009625;28;20473;-77
2022/06/15 14:15:20;;;;;;;6.03;2.77;;;31.10;81.20;;;;;;4991921;28;20409;-77
2022/06/15 14:18:15;;;;;;;2.13;1.90;;;31.00;80.00;;;;;;4990295;28;20430;-77
2022/06/15 14:20:45;;;;;;;2.90;2.27;;;31.10;83.50;;;;;;4991939;28;20431;-75
2022/06/15 14:23:12;;;;;;;5.70;3.50;;;31.00;82.90;;;;;;5002135;28;20495;-76
2022/06/15 14:25:50;;;;;;;2.50;2.30;;;30.90;81.50;;;;;;5011711;28;20425;-77
2022/06/15 14:28:19;;;;;;;3.90;2.60;;;30.90;82.20;;;;;;4998954;28;20434;-78
2022/06/15 14:30:49;;;;;;;3.03;2.80;;;30.90;83.70;;;;;;4991784;28;20422;-77
2022/06/15 14:33:20;;;;;;;2.37;2.17;;;31.00;87.00;;;;;;5001209;28;20470;-77
2022/06/15 14:35:58;;;;;;;2.80;2.60;;;31.00;83.40;;;;;;5011795;28;20505;-76
2022/06/15 14:38:24;;;;;;;8.60;3.10;;;31.00;82.70;;;;;;5008010;28;21057;-77
2022/06/15 14:40:51;;;;;;;6.77;2.53;;;31.00;83.30;;;;;;5011315;28;20414;-76
2022/06/15 14:43:19;;;;;;;9.50;2.90;;;30.90;84.90;;;;;;5009985;28;20270;-75
2022/06/15 14:45:48;;;;;;;11.53;2.77;;;30.90;83.70;;;;;;5009963;28;20429;-76
2022/06/15 14:48:26;;;;;;;2.70;2.30;;;30.70;82.90;;;;;;5010463;28;20464;-76
2022/06/15 14:51:05;;;;;;;3.33;2.67;;;30.60;84.20;;;;;;5011603;28;21159;-78
2022/06/15 14:53:31;;;;;;;6.20;3.00;;;30.50;84.00;;;;;;5010400;28;20441;-77
2022/06/15 14:56:01;;;;;;;3.47;2.90;;;30.40;82.50;;;;;;5010004;28;20441;-77
2022/06/15 14:58:27;;;;;;;3.37;2.60;;;30.40;82.30;;;;;;5010934;28;20187;-77
2022/06/15 15:01:10;;;;;;;3.20;2.53;;;30.30;82.40;;;;;;5011424;28;20467;-77
2022/06/15 15:03:39;;;;;;;9.07;3.00;;;30.40;83.70;;;;;;5013306;28;20241;-77